KFMN/FMN METAR and TAF weather

Enter ICAO airport designator
Station Type Date Time Source
KFMN METAR 2024/05/28 22:53 UTC NOAA

KFMN 282253Z VRB06KT 10SM CLR 32/M16 A3006 RMK AO2 SLP124 T03171156


Station Type Date Time Source
KFMN Decoded METAR 2024/05/28 22:53 UTC NOAA

FARMINGTON FOUR CORNERS, NM, United States (KFMN) 36-45N 108-14W 1685M
May 28, 2024 - 06:53 PM EDT / 2024.05.28 2253 UTC
Wind: Variable at 7 MPH (6 KT):0
Visibility: 10 mile(s):0
Sky conditions: clear
Temperature: 89.1 F (31.7 C)
Dew Point: 3.9 F (-15.6 C)
Relative Humidity: 3%
Pressure (altimeter): 30.06 in. Hg (1017 hPa)
ob: KFMN 282253Z VRB06KT 10SM CLR 32/M16 A3006 RMK AO2 SLP124 T03171156
cycle: 23

Station Type Date Time Source
KFMN TAF 2024/05/28 18:22 UTC NOAA